Time;durP1;ratioP1;P1;durP2;ratioP2;P2;SDS_P1;SDS_P2;PMS_P1;PMS_P2;Temp;Humidity;BMP_temperature;BMP_pressure;BME280_temperature;BME280_humidity;BME280_pressure;Samples;Min_cycle;Max_cycle;Signal;HPM_P1;HPM_P2
2023/01/28 00:00:12;;;;;;;8.27;6.75;;;;;;;2.14;64.58;100090.19;5064269;28;20357;-89
2023/01/28 00:03:03;;;;;;;13.07;6.85;;;;;;;2.14;64.72;100091.03;5059216;28;20207;-88
2023/01/28 00:05:30;;;;;;;12.15;7.53;;;;;;;2.16;64.48;100085.81;5058815;28;20225;-87
2023/01/28 00:07:56;;;;;;;10.63;6.90;;;;;;;2.18;64.56;100086.63;5042217;28;20308;-89
2023/01/28 00:10:31;;;;;;;10.55;6.82;;;;;;;2.21;64.30;100083.97;5061686;28;20200;-88
2023/01/28 00:13:02;;;;;;;9.48;6.63;;;;;;;2.24;64.50;100086.50;5057375;28;20298;-88
2023/01/28 00:15:55;;;;;;;14.48;6.35;;;;;;;2.23;64.37;100082.22;5055003;28;20565;-88
2023/01/28 00:18:23;;;;;;;8.32;6.55;;;;;;;2.22;64.61;100085.69;5064598;28;20227;-88
2023/01/28 00:21:07;;;;;;;9.05;7.00;;;;;;;2.21;64.33;100079.66;5067090;28;20211;-89
2023/01/28 00:24:08;;;;;;;;;;;;;;;;;;;;;
2023/01/28 00:26:45;;;;;;;11.35;7.90;;;;;;;2.17;64.63;100084.94;5057599;28;20731;-88
2023/01/28 00:29:18;;;;;;;7.72;6.53;;;;;;;2.17;64.98;100069.41;5045387;28;20708;-89
2023/01/28 00:31:46;;;;;;;12.80;6.83;;;;;;;2.17;64.85;100074.56;5057544;28;20199;-89
2023/01/28 00:34:14;;;;;;;11.13;6.97;;;;;;;2.19;64.96;100075.41;5037537;28;20224;-89
2023/01/28 00:36:45;;;;;;;10.47;7.30;;;;;;;2.20;64.91;100069.31;5045358;28;20588;-88
2023/01/28 00:39:13;;;;;;;11.57;7.30;;;;;;;2.21;65.04;100069.31;5037881;28;21430;-88
2023/01/28 00:41:51;;;;;;;;;;;;;;;;;;;;;
2023/01/28 00:44:21;;;;;;;10.80;7.32;;;;;;;2.25;64.86;100067.50;5038923;28;20268;-89
2023/01/28 00:46:46;;;;;;;9.32;6.75;;;;;;;2.28;65.13;100076.94;5059668;28;20291;-88
2023/01/28 00:49:12;;;;;;;10.20;8.03;;;;;;;2.28;65.28;100076.94;5059076;28;20199;-88
2023/01/28 00:51:40;;;;;;;11.85;9.02;;;;;;;2.29;65.14;100076.88;5040575;28;20987;-88
2023/01/28 00:54:07;;;;;;;11.47;6.50;;;;;;;2.29;64.99;100076.88;5046598;28;20206;-89
2023/01/28 00:56:44;;;;;;;10.40;7.47;;;;;;;2.30;64.99;100076.03;5054114;28;20472;-90
2023/01/28 00:59:19;;;;;;;10.25;6.10;;;;;;;2.31;65.19;100069.94;5054691;28;20709;-88
2023/01/28 01:01:55;;;;;;;10.75;6.80;;;;;;;2.30;65.48;100075.16;5059721;28;20753;-89
2023/01/28 01:04:25;;;;;;;10.18;6.65;;;;;;;2.27;65.47;100072.63;5040886;28;20214;-90
2023/01/28 01:06:52;;;;;;;10.40;6.82;;;;;;;2.26;65.40;100070.94;5046530;28;20217;-89
2023/01/28 01:09:21;;;;;;;8.65;6.07;;;;;;;2.25;65.47;100075.25;5059590;28;20670;-89
2023/01/28 01:11:52;;;;;;;9.00;5.70;;;;;;;2.27;65.57;100070.91;5048217;28;20204;-88
2023/01/28 01:14:17;;;;;;;7.68;6.57;;;;;;;2.26;65.39;100070.94;5065023;28;20205;-87
2023/01/28 01:16:46;;;;;;;11.50;7.57;;;;;;;2.28;65.42;100069.16;5060165;28;20196;-89
2023/01/28 01:19:14;;;;;;;9.98;5.97;;;;;;;2.25;65.69;100072.66;5050135;28;21050;-88
2023/01/28 01:21:49;;;;;;;8.73;5.78;;;;;;;2.23;65.72;100071.84;5048078;28;20628;-88
2023/01/28 01:24:32;;;;;;;;;;;;;;;;;;;;;
2023/01/28 01:27:00;;;;;;;10.23;7.68;;;;;;;2.17;65.79;100074.56;5038732;28;20209;-90
2023/01/28 01:29:31;;;;;;;8.48;6.65;;;;;;;2.18;66.06;100076.28;5059044;28;20201;-89
2023/01/28 01:32:16;;;;;;;9.45;5.90;;;;;;;2.17;66.16;100066.81;5066018;28;20207;-89
2023/01/28 01:34:50;;;;;;;7.78;4.88;;;;;;;2.18;65.82;100071.09;5051418;28;20292;-89
2023/01/28 01:37:18;;;;;;;12.65;6.05;;;;;;;2.18;65.97;100076.28;5045264;28;20224;-88
2023/01/28 01:39:54;;;;;;;;;;;;;;;;;;;;;
2023/01/28 01:42:26;;;;;;;9.35;5.72;;;;;;;2.22;65.87;100075.34;5062710;28;20224;-88
2023/01/28 01:45:10;;;;;;;;;;;;;;;;;;;;;
2023/01/28 01:47:48;;;;;;;7.47;5.20;;;;;;;2.26;65.63;100069.19;5053374;28;20192;-90
2023/01/28 01:50:41;;;;;;;9.55;6.05;;;;;;;2.27;65.50;100072.63;5064956;28;20188;-90
2023/01/28 01:53:27;;;;;;;11.05;5.20;;;;;;;2.25;65.79;100075.25;5064280;28;20207;-90
2023/01/28 01:56:05;;;;;;;9.13;6.10;;;;;;;2.25;65.68;100074.41;5038595;28;20208;-88
2023/01/28 01:58:35;;;;;;;7.40;5.30;;;;;;;2.25;65.79;100077.84;5038366;28;20236;-87
2023/01/28 02:01:16;;;;;;;8.70;5.25;;;;;;;2.24;65.50;100076.13;5062133;28;20204;-89
2023/01/28 02:04:10;;;;;;;6.05;4.45;;;;;;;2.26;65.71;100079.56;5067315;28;20608;-90
2023/01/28 02:06:38;;;;;;;7.05;5.00;;;;;;;2.25;65.59;100072.66;5041578;28;20208;-88
2023/01/28 02:09:25;;;;;;;7.40;4.65;;;;;;;2.28;65.28;100072.59;5064319;28;20200;-89
2023/01/28 02:11:55;;;;;;;6.88;4.43;;;;;;;2.28;65.66;100070.00;5040340;28;20670;-89
2023/01/28 02:14:23;;;;;;;8.10;5.22;;;;;;;2.27;65.34;100073.50;5042060;28;20196;-89
2023/01/28 02:16:51;;;;;;;7.25;5.82;;;;;;;2.27;65.16;100070.91;5022593;28;20216;-89
2023/01/28 02:19:27;;;;;;;7.38;5.43;;;;;;;2.27;65.19;100068.31;5043108;28;20515;-90
2023/01/28 02:22:15;;;;;;;8.07;4.88;;;;;;;2.28;65.13;100070.00;5030496;28;20281;-88
2023/01/28 02:24:59;;;;;;;6.95;5.85;;;;;;;2.29;65.39;100074.28;5026017;28;20257;-88
2023/01/28 02:27:54;;;;;;;9.48;5.32;;;;;;;2.31;65.31;100066.50;5001138;28;20205;-89
2023/01/28 02:30:32;;;;;;;6.80;4.93;;;;;;;2.34;64.91;100075.03;4997454;28;20349;-89
2023/01/28 02:33:12;;;;;;;6.30;5.30;;;;;;;2.38;64.89;100076.69;4991614;28;20202;-88
2023/01/28 02:35:45;;;;;;;6.80;4.72;;;;;;;2.38;65.08;100074.09;4994289;28;20198;-88
2023/01/28 02:38:18;;;;;;;5.78;3.92;;;;;;;2.39;64.64;100070.63;4999137;28;20625;-88
2023/01/28 02:41:01;;;;;;;9.50;5.03;;;;;;;2.40;64.65;100076.66;5008694;28;20202;-89
2023/01/28 02:43:39;;;;;;;10.25;5.70;;;;;;;2.38;65.11;100079.28;4991104;28;20209;-88
2023/01/28 02:49:16;;;;;;;7.75;5.75;;;;;;;2.33;65.10;100080.28;4998516;28;20214;-88
2023/01/28 02:51:48;;;;;;;7.63;6.05;;;;;;;2.33;65.03;100085.47;5019465;28;20210;-89
2023/01/28 02:54:21;;;;;;;9.15;5.50;;;;;;;2.34;65.12;100081.97;5006468;28;20292;-88
2023/01/28 02:57:38;;;;;;;10.40;6.07;;;;;;;2.34;65.26;100092.34;4996800;28;20218;-88
2023/01/28 03:00:13;;;;;;;6.95;5.88;;;;;;;2.31;65.71;100082.06;4974717;28;20218;-88
2023/01/28 03:02:54;;;;;;;8.32;6.53;;;;;;;2.29;65.93;100084.66;5005657;28;20590;-88
2023/01/28 03:05:38;;;;;;;9.48;6.53;;;;;;;2.29;65.70;100083.81;5003030;28;20685;-90
2023/01/28 03:09:21;;;;;;;7.55;5.10;;;;;;;2.28;65.91;100088.16;5002013;28;20202;-88
2023/01/28 03:36:54;;;;;;;9.60;5.55;;;;;;;2.18;66.67;100097.84;5064320;28;20235;-89
2023/01/28 03:39:45;;;;;;;7.15;4.60;;;;;;;2.17;66.50;100095.31;5056279;28;20266;-88
2023/01/28 03:42:13;;;;;;;5.80;5.10;;;;;;;2.16;66.58;100094.47;5040575;28;20196;-89
2023/01/28 03:44:51;;;;;;;7.35;5.53;;;;;;;2.17;66.36;100092.72;5044642;28;20300;-88
2023/01/28 03:47:21;;;;;;;5.80;5.07;;;;;;;2.19;66.60;100096.13;5040725;28;20403;-88
2023/01/28 03:49:50;;;;;;;8.32;5.82;;;;;;;2.21;66.57;100099.53;5060428;28;20195;-88
2023/01/28 03:52:30;;;;;;;7.43;4.70;;;;;;;2.20;66.49;100101.28;5042847;28;20251;-89
2023/01/28 03:55:14;;;;;;;6.35;5.25;;;;;;;2.20;66.46;100100.44;5036318;28;20214;-89
2023/01/28 03:57:40;;;;;;;5.50;5.00;;;;;;;2.21;66.51;100102.13;5035576;28;20217;-88
2023/01/28 04:00:09;;;;;;;9.47;5.73;;;;;;;2.24;66.48;100107.22;5038762;28;20215;-90
2023/01/28 04:02:39;;;;;;;7.82;5.90;;;;;;;2.26;66.47;100105.47;5056998;28;20244;-89
2023/01/28 04:05:11;;;;;;;6.80;6.15;;;;;;;2.28;66.76;100108.88;5041644;28;20235;-90
2023/01/28 04:07:43;;;;;;;8.98;6.05;;;;;;;2.31;66.33;100106.22;5035881;28;20193;-88
2023/01/28 04:10:19;;;;;;;7.03;4.80;;;;;;;2.32;66.54;100109.66;5033016;28;20208;-89
2023/01/28 04:12:56;;;;;;;5.00;4.20;;;;;;;2.33;66.23;100099.28;5058061;28;20617;-89
2023/01/28 04:15:23;;;;;;;10.10;6.05;;;;;;;2.32;66.12;100110.53;5021434;28;20689;-89
2023/01/28 04:17:49;;;;;;;10.17;5.20;;;;;;;2.35;66.19;100117.38;5043739;28;20234;-90
2023/01/28 04:20:25;;;;;;;5.95;4.68;;;;;;;2.36;66.06;100106.13;5039921;28;20272;-90
2023/01/28 04:22:51;;;;;;;7.10;5.32;;;;;;;2.35;65.96;100104.41;5047657;28;21016;-89
2023/01/28 04:25:18;;;;;;;9.13;5.97;;;;;;;2.34;66.07;100118.28;5034806;28;20629;-88
2023/01/28 04:27:43;;;;;;;6.00;5.13;;;;;;;2.36;65.99;100116.50;5036135;28;20244;-89
2023/01/28 04:30:30;;;;;;;6.75;5.78;;;;;;;2.39;65.91;100119.03;5047567;28;20775;-88
2023/01/28 04:33:08;;;;;;;6.57;5.22;;;;;;;2.42;65.55;100117.19;5040520;28;20235;-87
2023/01/28 04:35:40;;;;;;;7.70;6.70;;;;;;;2.47;65.97;100118.84;5037643;28;20500;-88
2023/01/28 04:38:10;;;;;;;7.88;5.85;;;;;;;2.49;65.71;100120.53;5039950;28;20229;-88
2023/01/28 04:40:57;;;;;;;6.65;4.85;;;;;;;2.51;65.85;100121.34;5040256;28;20766;-87
2023/01/28 04:43:29;;;;;;;6.82;4.55;;;;;;;2.53;65.70;100118.72;5048852;28;21196;-88
2023/01/28 04:46:16;;;;;;;6.10;4.95;;;;;;;2.54;65.71;100130.78;5067618;28;20208;-86
2023/01/28 04:48:51;;;;;;;7.82;5.05;;;;;;;2.57;65.68;100131.59;5050192;28;20204;-88
2023/01/28 04:51:32;;;;;;;5.28;4.55;;;;;;;2.63;65.41;100130.59;5048617;28;20208;-88
2023/01/28 04:54:23;;;;;;;6.60;4.85;;;;;;;2.66;64.81;100130.50;5055597;28;20218;-87
2023/01/28 04:56:51;;;;;;;10.52;4.63;;;;;;;2.66;64.77;100138.28;5059050;28;20198;-88
2023/01/28 04:59:18;;;;;;;4.68;4.20;;;;;;;2.67;64.86;100137.41;5063019;28;20219;-88
2023/01/28 05:01:44;;;;;;;7.38;3.72;;;;;;;2.64;64.99;100133.13;5073580;28;20654;-87
2023/01/28 05:04:10;;;;;;;7.70;4.50;;;;;;;2.65;64.63;100136.59;5050557;28;20390;-89
2023/01/28 05:06:37;;;;;;;5.70;4.38;;;;;;;2.63;64.86;100128.00;5073887;28;20196;-90
2023/01/28 05:09:10;;;;;;;6.32;4.63;;;;;;;2.62;65.14;100131.50;5053626;28;20679;-89
2023/01/28 05:11:35;;;;;;;7.37;4.70;;;;;;;2.61;65.08;100141.00;5052352;28;20227;-88
2023/01/28 05:14:03;;;;;;;9.32;5.10;;;;;;;2.60;65.21;100136.69;5053692;28;20764;-89
2023/01/28 05:16:37;;;;;;;5.45;4.45;;;;;;;2.58;65.24;100132.44;5051519;28;20204;-88
2023/01/28 05:19:03;;;;;;;6.67;4.43;;;;;;;2.53;64.95;100142.06;5054608;28;20219;-87
2023/01/28 05:21:33;;;;;;;5.80;3.70;;;;;;;2.51;65.04;100136.91;5054886;28;20207;-88
2023/01/28 05:24:04;;;;;;;5.05;3.53;;;;;;;2.50;65.42;100148.16;5041956;28;20272;-88
2023/01/28 05:26:29;;;;;;;8.50;4.73;;;;;;;2.49;65.28;100156.00;5012797;28;20611;-88
2023/01/28 05:28:55;;;;;;;5.47;4.00;;;;;;;2.49;65.37;100148.22;5012887;28;20478;-88
2023/01/28 05:31:23;;;;;;;5.40;3.95;;;;;;;2.48;65.11;100159.44;5014487;28;20394;-89
2023/01/28 05:33:51;;;;;;;7.03;5.10;;;;;;;2.45;65.28;100152.59;5015444;28;20212;-88
2023/01/28 05:36:16;;;;;;;5.35;3.95;;;;;;;2.48;65.19;100157.69;5010594;28;20235;-89
2023/01/28 05:38:42;;;;;;;9.67;5.00;;;;;;;2.48;65.02;100154.25;5011807;28;20236;-89
2023/01/28 05:41:07;;;;;;;6.10;3.87;;;;;;;2.46;65.25;100154.31;5031890;28;20232;-90
2023/01/28 05:43:34;;;;;;;6.35;4.22;;;;;;;2.48;65.49;100151.66;5012773;28;20213;-89
2023/01/28 05:46:12;;;;;;;6.30;4.82;;;;;;;2.49;65.49;100158.59;5030383;28;20230;-88
2023/01/28 05:48:56;;;;;;;5.35;3.92;;;;;;;2.51;65.29;100152.47;5029469;28;20267;-88
2023/01/28 05:51:43;;;;;;;8.20;4.72;;;;;;;2.55;65.10;100164.47;5032590;28;20215;-88
2023/01/28 05:54:11;;;;;;;8.00;5.10;;;;;;;2.58;65.36;100163.56;4949357;28;20242;-88
2023/01/28 05:56:47;;;;;;;;;;;;;;;;;;;;;
2023/01/28 05:59:23;;;;;;;6.57;4.28;;;;;;;2.60;65.02;100161.78;4970106;28;20624;-92
2023/01/28 06:01:56;;;;;;;4.55;3.50;;;;;;;2.58;65.04;100161.81;4952152;28;20582;-93
2023/01/28 06:04:25;;;;;;;6.38;4.38;;;;;;;2.56;65.10;100157.53;4949851;28;20212;-91
2023/01/28 06:07:01;;;;;;;7.10;4.82;;;;;;;2.54;65.05;100160.19;4949390;28;20212;-91
2023/01/28 06:09:32;;;;;;;5.13;4.32;;;;;;;2.52;64.71;100167.13;4941271;28;20218;-91
2023/01/28 06:12:10;;;;;;;;;;;;;;;;;;;;;
2023/01/28 06:14:56;;;;;;;5.22;3.65;;;;;;;2.54;64.72;100161.91;4921472;28;20316;-91
2023/01/28 06:18:07;;;;;;;;;;;;;;;;;;;;;
2023/01/28 06:20:35;;;;;;;6.57;3.92;;;;;;;2.56;64.37;100170.50;4945468;28;20733;-91
2023/01/28 06:23:11;;;;;;;5.30;3.72;;;;;;;2.52;64.25;100169.72;4957460;28;20212;-91
2023/01/28 06:25:54;;;;;;;6.13;3.65;;;;;;;2.56;64.09;100170.50;4992518;28;20221;-92
2023/01/28 06:28:36;;;;;;;;;;;;;;;;;;;;;
2023/01/28 06:31:06;;;;;;;7.85;4.00;;;;;;;2.57;64.29;100187.78;5011357;28;20214;-91
2023/01/28 06:34:03;;;;;;;5.53;3.55;;;;;;;2.59;63.70;100192.06;5012169;28;20484;-92
2023/01/28 06:36:52;;;;;;;;;;;;;;;;;;;;;
2023/01/28 06:40:10;;;;;;;6.00;4.03;;;;;;;2.59;63.90;100186.88;5009833;28;20230;-92
2023/01/28 06:42:39;;;;;;;6.95;3.20;;;;;;;2.60;63.88;100198.09;5010171;28;20221;-92
2023/01/28 06:45:08;;;;;;;5.82;3.60;;;;;;;2.57;63.83;100198.16;5009437;28;20834;-90
2023/01/28 06:47:33;;;;;;;5.28;3.22;;;;;;;2.63;63.63;100211.00;5007724;28;20256;-92
2023/01/28 06:50:06;;;;;;;6.25;3.90;;;;;;;2.63;63.44;100208.41;5009884;28;20668;-90
2023/01/28 06:52:31;;;;;;;4.03;3.13;;;;;;;2.66;63.45;100213.50;5006505;28;20245;-91
2023/01/28 06:55:00;;;;;;;3.97;3.03;;;;;;;2.66;63.50;100211.78;5009706;28;20344;-92
2023/01/28 06:57:31;;;;;;;5.70;3.00;;;;;;;2.65;63.77;100209.22;5008712;28;20301;-91
2023/01/28 06:59:59;;;;;;;4.03;3.20;;;;;;;2.65;63.52;100217.84;5006965;28;20206;-91
2023/01/28 07:02:29;;;;;;;3.63;3.15;;;;;;;2.67;63.23;100212.63;5010284;28;20202;-92
2023/01/28 07:05:05;;;;;;;4.40;2.65;;;;;;;2.70;63.45;100214.28;5008011;28;20221;-92
2023/01/28 07:07:45;;;;;;;4.82;3.25;;;;;;;2.71;63.38;100223.81;5010031;28;20202;-90
2023/01/28 07:10:23;;;;;;;4.72;2.38;;;;;;;2.72;63.07;100213.38;5009538;28;20206;-91
2023/01/28 07:13:05;;;;;;;;;;;;;;;;;;;;;
2023/01/28 07:15:48;;;;;;;5.15;3.05;;;;;;;2.75;63.33;100223.69;5008332;28;20202;-92
2023/01/28 07:18:29;;;;;;;4.72;3.00;;;;;;;2.74;63.08;100223.72;5006434;28;20307;-91
2023/01/28 07:21:06;;;;;;;3.95;2.80;;;;;;;2.73;63.12;100224.59;5006591;28;21089;-90
2023/01/28 07:23:44;;;;;;;;;;;;;;;;;;;;;
2023/01/28 07:26:25;;;;;;;;;;;;;;;;;;;;;
2023/01/28 07:28:54;;;;;;;5.28;3.33;;;;;;;2.75;63.30;100233.22;5019671;28;20678;-91
2023/01/28 07:31:38;;;;;;;6.15;3.67;;;;;;;2.77;63.13;100242.66;5022705;28;20750;-91
2023/01/28 07:34:21;;;;;;;;;;;;;;;;;;;;;
2023/01/28 07:36:59;;;;;;;4.05;3.13;;;;;;;2.78;63.32;100243.50;5025499;28;20209;-90
2023/01/28 07:39:43;;;;;;;5.07;3.65;;;;;;;2.80;62.90;100246.94;5031496;28;20400;-91
2023/01/28 07:42:32;;;;;;;4.93;3.75;;;;;;;2.81;63.27;100254.69;5034554;28;20224;-91
2023/01/28 07:45:30;;;;;;;;;;;;;;;;;;;;;
2023/01/28 07:48:22;;;;;;;6.95;3.55;;;;;;;2.81;62.96;100252.09;5045945;28;20589;-92
2023/01/28 07:51:00;;;;;;;4.05;3.15;;;;;;;2.83;62.87;100257.25;5044402;28;20201;-91
2023/01/28 07:53:47;;;;;;;3.60;2.95;;;;;;;2.84;62.63;100249.44;5026298;28;20210;-93
2023/01/28 07:56:30;;;;;;;5.18;4.40;;;;;;;2.86;62.73;100252.88;5028577;28;20208;-91
2023/01/28 07:59:40;;;;;;;;;;;;;;;;;;;;;
2023/01/28 08:06:01;;;;;;;;;;;;;;;;;;;;;
2023/01/28 08:08:30;;;;;;;6.45;4.75;;;;;;;2.98;63.35;100261.25;5023026;28;20209;-92
2023/01/28 08:11:21;;;;;;;5.80;3.80;;;;;;;2.99;63.14;100268.16;5010196;28;20205;-91
2023/01/28 08:14:09;;;;;;;;;;;;;;;;;;;;;
2023/01/28 08:17:38;;;;;;;4.88;3.13;;;;;;;2.98;62.97;100264.72;5017788;28;20221;-91
2023/01/28 08:20:16;;;;;;;4.25;3.28;;;;;;;2.99;63.25;100273.34;4994122;28;20635;-92
2023/01/28 08:23:36;;;;;;;;;;;;;;;;;;;;;
2023/01/28 08:26:38;;;;;;;5.57;2.90;;;;;;;3.01;62.89;100277.59;5019703;28;20209;-91
2023/01/28 08:37:07;;;;;;;5.25;4.30;;;;;;;3.12;62.45;100279.13;4876854;28;20493;-92
2023/01/28 08:40:10;;;;;;;;;;;;;;;;;;;;;
2023/01/28 08:42:52;;;;;;;5.10;2.70;;;;;;;3.21;62.16;100282.34;5019346;28;20216;-92
2023/01/28 08:46:41;;;;;;;4.80;2.78;;;;;;;3.26;62.10;100284.84;5009045;28;20238;-92
2023/01/28 08:49:34;;;;;;;;;;;;;;;;;;;;;
2023/01/28 08:52:51;;;;;;;;;;;;;;;;;;;;;
2023/01/28 08:56:13;;;;;;;2.80;2.35;;;;;;;3.35;61.85;100281.19;5033163;28;20209;-92
2023/01/28 08:58:59;;;;;;;;;;;;;;;;;;;;;
2023/01/28 09:02:14;;;;;;;;;;;;;;;;;;;;;
2023/01/28 09:04:59;;;;;;;7.97;2.70;;;;;;;3.49;61.51;100292.13;5029767;28;20224;-92
2023/01/28 09:08:32;;;;;;;5.60;2.95;;;;;;;3.54;61.78;100292.88;5038342;28;20210;-93
2023/01/28 09:11:29;;;;;;;;;;;;;;;;;;;;;
2023/01/28 09:14:28;;;;;;;4.00;3.00;;;;;;;3.62;61.15;100296.13;5027837;28;20210;-91
2023/01/28 09:25:14;;;;;;;;;;;;;;;;;;;;;
2023/01/28 09:28:26;;;;;;;4.45;2.58;;;;;;;3.61;60.29;100299.59;4962512;28;20234;-94
2023/01/28 09:31:41;;;;;;;4.97;3.92;;;;;;;3.61;60.43;100297.00;5012924;28;20220;-93
2023/01/28 09:35:02;;;;;;;;;;;;;;;;;;;;;
2023/01/28 09:46:03;;;;;;;;;;;;;;;;;;;;;
2023/01/28 09:49:06;;;;;;;;;;;;;;;;;;;;;
2023/01/28 09:52:15;;;;;;;4.28;3.70;;;;;;;3.88;59.45;100318.00;4924309;29;20282;-93
2023/01/28 09:59:36;;;;;;;4.05;3.45;;;;;;;3.97;59.01;100310.00;4916089;29;20238;-94
2023/01/28 10:02:50;;;;;;;;;;;;;;;;;;;;;
2023/01/28 10:06:41;;;;;;;;;;;;;;;;;;;;;
2023/01/28 10:16:45;;;;;;;3.75;2.60;;;;;;;4.28;57.32;100311.81;5013548;23;20302;-80
2023/01/28 10:19:29;;;;;;;7.05;3.85;;;;;;;4.26;57.08;100306.63;5082034;28;20702;-77
2023/01/28 10:22:01;;;;;;;10.35;7.32;;;;;;;4.34;56.87;100306.44;5080290;28;20254;-77
2023/01/28 10:24:43;;;;;;;4.93;3.17;;;;;;;4.41;56.45;100297.56;5082436;28;20221;-77
2023/01/28 11:34:03;;;;;;;;;;;;;;;5.09;53.31;100242.66;5041677;28;20421;-80
2023/01/28 11:36:30;;;;;;;;;;;;;;;5.71;51.63;100244.13;5035167;28;19971;-80
2023/01/28 11:39:00;;;;;;;;;;;;;;;6.09;51.06;100262.03;5032228;28;19913;-84
2023/01/28 11:41:29;;;;;;;;;;;;;;;6.25;50.43;100255.38;5031481;28;20361;-79
2023/01/28 11:43:55;;;;;;;;;;;;;;;6.27;49.96;100248.34;5031126;28;20383;-81
2023/01/28 11:46:30;;;;;;;;;;;;;;;6.20;49.79;100252.91;5033781;28;20355;-80
2023/01/28 11:49:03;;;;;;;;;;;;;;;6.02;49.56;100247.50;5029898;28;20499;-79
2023/01/28 11:51:34;;;;;;;;;;;;;;;6.00;49.60;100249.31;5029542;28;19962;-82
2023/01/28 11:54:16;;;;;;;;;;;;;;;6.00;49.85;100254.53;5025403;28;19966;-85
2023/01/28 11:56:54;;;;;;;;;;;;;;;6.00;50.03;100241.50;5029345;28;20297;-81
2023/01/28 11:59:19;;;;;;;;;;;;;;;5.98;50.09;100238.94;5030112;28;20529;-84
2023/01/28 12:02:03;;;;;;;;;;;;;;;6.00;49.99;100239.72;5029716;28;20008;-84
2023/01/28 12:04:41;;;;;;;;;;;;;;;5.96;49.87;100248.56;5027420;28;20124;-85
2023/01/28 12:07:30;;;;;;;;;;;;;;;5.81;49.92;100246.47;5028957;28;20015;-84
2023/01/28 12:10:05;;;;;;;7.97;3.80;;;;;;;5.70;49.95;100241.59;5025861;28;20438;-82
2023/01/28 12:12:52;;;;;;;4.10;3.70;;;;;;;5.71;50.16;100243.28;5021627;28;20810;-81
2023/01/28 12:15:24;;;;;;;5.78;4.25;;;;;;;5.72;50.27;100250.19;5023064;28;20414;-82
2023/01/28 12:17:55;;;;;;;3.97;3.63;;;;;;;5.70;49.99;100257.25;5022122;28;20423;-82
2023/01/28 12:20:30;;;;;;;5.57;3.72;;;;;;;5.63;49.82;100253.13;5023543;28;20909;-79
2023/01/28 12:23:16;;;;;;;5.05;3.53;;;;;;;5.68;50.35;100254.66;5019293;28;20409;-80
2023/01/28 12:26:02;;;;;;;4.88;3.60;;;;;;;5.71;50.35;100248.50;5022070;28;20420;-79
2023/01/28 12:28:43;;;;;;;4.82;3.40;;;;;;;5.66;49.79;100263.44;5024511;28;20818;-79
2023/01/28 12:31:37;;;;;;;4.75;3.40;;;;;;;5.55;49.46;100250.75;5025140;28;20503;-80
2023/01/28 12:34:21;;;;;;;4.60;3.83;;;;;;;5.48;49.87;100260.53;5026168;28;20969;-79
2023/01/28 12:37:05;;;;;;;4.38;3.75;;;;;;;5.42;49.58;100268.53;5024828;28;20566;-80
2023/01/28 12:39:48;;;;;;;5.00;4.30;;;;;;;5.42;50.51;100265.09;5022830;28;20437;-79
2023/01/28 12:42:47;;;;;;;5.00;3.80;;;;;;;5.55;50.73;100269.84;5024819;28;20424;-82
2023/01/28 12:45:16;;;;;;;4.60;4.20;;;;;;;5.60;50.43;100258.44;5011552;28;20837;-83
2023/01/28 12:47:53;;;;;;;6.80;5.72;;;;;;;5.64;50.56;100265.25;5011882;28;20776;-79
2023/01/28 12:50:31;;;;;;;4.78;4.28;;;;;;;5.66;50.43;100261.69;5010447;28;20453;-82
2023/01/28 12:53:08;;;;;;;4.38;3.45;;;;;;;5.66;50.51;100266.06;5010866;28;20450;-83
2023/01/28 12:55:45;;;;;;;4.28;3.88;;;;;;;5.60;51.05;100258.44;5008150;28;20878;-82
2023/01/28 12:58:23;;;;;;;5.10;3.80;;;;;;;5.56;51.06;100260.28;5001335;28;20450;-81
2023/01/28 13:00:55;;;;;;;5.28;4.40;;;;;;;5.51;51.42;100265.66;5011651;28;20960;-79
2023/01/28 13:03:27;;;;;;;4.30;3.80;;;;;;;5.50;51.32;100270.91;5011179;28;20603;-81
2023/01/28 13:06:08;;;;;;;4.85;3.90;;;;;;;5.53;51.26;100265.59;5010776;28;20916;-82
2023/01/28 13:08:34;;;;;;;4.75;3.90;;;;;;;5.54;50.83;100269.91;5004030;28;20834;-79
2023/01/28 13:11:02;;;;;;;6.35;3.90;;;;;;;5.57;51.31;100271.56;5006285;28;20923;-80
2023/01/28 13:13:32;;;;;;;4.70;4.30;;;;;;;5.55;51.33;100267.25;5009970;28;20523;-80
2023/01/28 13:15:59;;;;;;;4.72;4.22;;;;;;;5.62;51.29;100261.84;5006359;28;20880;-82
2023/01/28 13:18:44;;;;;;;6.38;4.90;;;;;;;5.64;50.94;100268.69;5004493;28;21523;-80
2023/01/28 13:21:25;;;;;;;6.90;4.60;;;;;;;5.66;51.17;100271.25;5006348;28;20660;-82
2023/01/28 13:24:04;;;;;;;5.57;4.53;;;;;;;5.69;50.95;100271.16;5010540;28;20501;-84
2023/01/28 13:26:46;;;;;;;5.72;4.20;;;;;;;5.58;51.04;100268.91;5013106;28;20455;-79
2023/01/28 13:29:14;;;;;;;5.05;4.10;;;;;;;5.62;51.03;100274.88;5028582;23;20449;-81
2023/01/28 13:31:45;;;;;;;7.00;4.55;;;;;;;5.51;50.40;100281.28;5002098;28;20450;-81
2023/01/28 13:34:35;;;;;;;5.00;4.50;;;;;;;5.30;50.71;100272.41;5009063;28;20419;-80
2023/01/28 13:37:31;;;;;;;4.72;3.72;;;;;;;5.41;50.94;100274.66;5004475;28;20934;-82
2023/01/28 13:40:05;;;;;;;6.38;4.65;;;;;;;5.42;51.33;100276.34;5000106;28;20681;-82
2023/01/28 13:42:31;;;;;;;4.80;4.40;;;;;;;5.45;51.32;100280.63;4994040;28;20415;-81
2023/01/28 13:45:15;;;;;;;5.80;4.40;;;;;;;5.42;51.01;100273.75;4993781;28;20407;-82
2023/01/28 13:47:49;;;;;;;6.85;4.60;;;;;;;5.39;51.36;100283.44;4982709;28;20392;-82
2023/01/28 13:50:19;;;;;;;5.00;4.45;;;;;;;5.43;50.99;100274.63;4980810;28;20399;-81
2023/01/28 13:52:52;;;;;;;5.60;5.00;;;;;;;5.49;51.19;100272.66;4977562;28;20514;-82
2023/01/28 13:55:24;;;;;;;6.07;4.50;;;;;;;5.51;51.26;100281.28;4978288;28;20423;-82
2023/01/28 13:58:34;;;;;;;6.40;5.10;;;;;;;5.49;51.74;100284.84;5002160;28;20428;-81
2023/01/28 14:01:17;;;;;;;6.95;5.13;;;;;;;5.51;51.68;100283.06;4989939;28;20469;-81
2023/01/28 14:04:14;;;;;;;5.90;4.30;;;;;;;5.53;51.72;100294.25;4985021;28;20480;-82
2023/01/28 14:06:56;;;;;;;6.68;5.28;;;;;;;5.53;51.24;100287.28;4985688;28;20435;-81
2023/01/28 14:09:57;;;;;;;6.13;4.53;;;;;;;5.54;51.40;100291.59;4985372;28;20422;-83
2023/01/28 14:12:43;;;;;;;5.55;4.30;;;;;;;5.54;51.27;100286.41;4980531;28;21096;-83
2023/01/28 14:15:36;;;;;;;5.90;4.40;;;;;;;5.50;51.31;100290.00;4982679;28;20497;-83
2023/01/28 14:18:13;;;;;;;5.30;4.32;;;;;;;5.35;50.85;100285.28;4979366;28;20771;-82
2023/01/28 14:20:44;;;;;;;7.95;4.93;;;;;;;5.41;51.00;100292.06;4983800;28;20438;-83
2023/01/28 14:23:17;;;;;;;6.60;4.90;;;;;;;5.43;51.14;100298.91;4998958;28;20418;-81
2023/01/28 14:25:57;;;;;;;5.97;4.50;;;;;;;5.33;51.01;100297.50;4982056;28;20418;-82
2023/01/28 14:29:01;;;;;;;6.70;4.60;;;;;;;5.39;51.23;100302.50;5000457;28;20932;-82
2023/01/28 14:31:31;;;;;;;4.20;3.40;;;;;;;5.33;49.78;100305.31;4980459;28;20516;-81
2023/01/28 14:34:23;;;;;;;5.95;4.30;;;;;;;5.35;50.19;100313.94;4985669;28;20420;-82
2023/01/28 14:36:51;;;;;;;5.38;4.53;;;;;;;5.37;50.50;100312.13;4986174;28;20415;-81
2023/01/28 14:39:25;;;;;;;6.68;5.78;;;;;;;5.41;51.00;100313.75;4978296;28;20963;-81
2023/01/28 14:41:52;;;;;;;9.05;5.97;;;;;;;5.46;51.14;100317.06;4996679;28;20415;-81
2023/01/28 14:44:32;;;;;;;7.20;5.70;;;;;;;5.52;51.61;100316.00;4985200;28;20408;-81
2023/01/28 14:47:49;;;;;;;7.78;6.00;;;;;;;5.41;52.23;100320.72;4983813;28;20408;-81
2023/01/28 14:50:32;;;;;;;6.47;5.28;;;;;;;5.35;52.51;100329.56;4981236;28;20516;-81
2023/01/28 14:53:18;;;;;;;6.80;5.70;;;;;;;5.38;52.48;100329.47;4986176;28;20465;-81
2023/01/28 14:55:57;;;;;;;7.00;5.20;;;;;;;5.37;52.76;100332.97;4986816;28;20991;-81
2023/01/28 14:58:48;;;;;;;7.40;5.70;;;;;;;5.38;52.90;100333.84;4973380;28;20403;-81
2023/01/28 15:01:24;;;;;;;7.15;6.13;;;;;;;5.39;52.47;100338.97;4971938;28;20659;-81
2023/01/28 15:03:53;;;;;;;8.10;6.40;;;;;;;5.40;52.63;100340.72;4973365;28;20876;-81
2023/01/28 15:06:30;;;;;;;7.85;6.00;;;;;;;5.32;52.52;100340.94;4975133;28;20421;-82
2023/01/28 15:09:07;;;;;;;5.53;4.85;;;;;;;5.20;52.67;100343.88;4971247;28;21332;-81
2023/01/28 15:11:40;;;;;;;7.88;5.72;;;;;;;5.20;52.56;100351.69;4968152;28;20477;-81
2023/01/28 15:14:29;;;;;;;7.18;5.30;;;;;;;5.20;52.89;100353.47;4974044;28;20436;-82
2023/01/28 15:16:57;;;;;;;8.35;5.90;;;;;;;5.19;52.71;100362.19;4975068;28;20463;-81
2023/01/28 15:19:29;;;;;;;8.27;6.32;;;;;;;5.15;52.85;100365.75;4964653;28;20422;-82
2023/01/28 15:22:19;;;;;;;7.40;5.18;;;;;;;5.15;52.77;100368.38;4968162;28;20489;-82
2023/01/28 15:25:29;;;;;;;8.10;6.10;;;;;;;5.11;52.63;100375.44;4991517;28;20520;-82
2023/01/28 15:28:12;;;;;;;7.95;5.47;;;;;;;5.12;52.79;100376.28;4967071;28;20434;-81
2023/01/28 15:30:59;;;;;;;6.97;5.10;;;;;;;5.04;52.81;100386.91;4967120;28;20513;-81
2023/01/28 15:33:31;;;;;;;7.03;5.93;;;;;;;4.98;53.05;100392.28;4970149;28;21150;-81